Time;durP1;ratioP1;P1;durP2;ratioP2;P2;SDS_P1;SDS_P2;PMS_P1;PMS_P2;Temp;Humidity;BMP_temperature;BMP_pressure;BME280_temperature;BME280_humidity;BME280_pressure;Samples;Min_cycle;Max_cycle;Signal;HPM_P1;HPM_P2
2022/09/28 00:00:46;;;;;;;;;;;;;;;25.15;44.38;92858.94;4993943;28;7010;-60
2022/09/28 00:03:12;;;;;;;;;;;;;;;25.17;44.04;92855.63;4989845;28;7236;-60
2022/09/28 00:05:38;;;;;;;;;;;;;;;25.16;43.89;92851.44;4981604;28;9746;-60
2022/09/28 00:08:13;;;;;;;;;;;;;;;25.16;43.57;92859.69;5004266;28;7004;-60
2022/09/28 00:10:42;;;;;;;;;;;;;;;25.14;44.21;92851.25;5000295;28;7205;-59
2022/09/28 00:13:14;;;;;;;;;;;;;;;25.13;44.04;92841.50;5007434;28;7201;-60
2022/09/28 00:15:57;;;;;;;;;;;;;;;25.10;43.88;92835.06;5050213;28;6997;-60
2022/09/28 00:18:29;;;;;;;;;;;;;;;25.12;43.97;92820.78;5052842;28;7230;-60
2022/09/28 00:21:20;;;;;;;;;;;;;;;25.16;44.36;92815.66;5050274;28;6957;-60
2022/09/28 00:24:14;;;;;;;;;;;;;;;25.16;44.22;92802.66;5061884;28;7401;-60
2022/09/28 00:26:55;;;;;;;;;;;;;;;25.15;43.58;92789.41;5047515;28;7807;-60
2022/09/28 00:29:42;;;;;;;;;;;;;;;25.15;43.87;92781.91;5047310;28;7388;-60
2022/09/28 00:32:17;;;;;;;;;;;;;;;25.14;44.07;92783.19;5057888;28;7733;-60
2022/09/28 00:34:52;;;;;;;;;;;;;;;25.12;43.67;92785.75;5053392;28;8972;-60
2022/09/28 00:37:31;;;;;;;;;;;;;;;25.11;43.67;92780.78;5061678;28;9194;-60
2022/09/28 00:39:57;;;;;;;;;;;;;;;25.10;44.38;92784.84;5059678;28;7160;-60
2022/09/28 00:42:25;;;;;;;;;;;;;;;25.08;44.08;92782.63;5070340;28;7175;-60
2022/09/28 00:44:57;;;;;;;;;;;;;;;25.10;43.93;92773.84;5067592;28;9044;-60
2022/09/28 00:47:50;;;;;;;;;;;;;;;25.12;44.32;92782.28;5064257;28;7262;-60
2022/09/28 00:50:35;;;;;;;;;;;;;;;25.09;44.06;92777.84;5043830;28;7224;-60
2022/09/28 00:53:25;;;;;;;;;;;;;;;25.07;44.35;92775.66;5068159;28;9633;-60
2022/09/28 00:55:58;;;;;;;;;;;;;;;25.07;44.41;92769.41;5062454;28;7364;-60
2022/09/28 00:59:03;;;;;;;;;;;;;;;25.10;43.90;92768.34;5056193;28;7486;-60
2022/09/28 01:01:30;;;;;;;;;;;;;;;25.07;44.36;92752.91;5077508;28;8751;-60
2022/09/28 01:04:11;;;;;;;;;;;;;;;25.05;43.56;92756.22;5040875;28;7871;-60
2022/09/28 01:06:50;;;;;;;;;;;;;;;25.03;43.75;92747.03;5042720;28;10275;-60
2022/09/28 01:09:20;;;;;;;;;;;;;;;25.03;43.75;92731.28;5060067;28;9589;-60
2022/09/28 01:11:54;;;;;;;;;;;;;;;25.05;43.68;92734.22;5077060;28;7822;-60
2022/09/28 01:14:24;;;;;;;;;;;;;;;25.05;44.20;92745.22;5040187;28;7070;-60
2022/09/28 01:17:16;;;;;;;;;;;;;;;25.03;44.08;92730.53;5041036;28;8322;-60
2022/09/28 01:20:04;;;;;;;;;;;;;;;25.03;43.75;92730.53;5052886;28;6992;-60
2022/09/28 01:23:02;;;;;;;;;;;;;;;25.06;44.01;92734.91;5087064;28;6952;-60
2022/09/28 01:25:57;;;;;;;;;;;;;;;25.04;43.45;92732.72;5037878;28;7915;-60
2022/09/28 01:28:28;;;;;;;;;;;;;;;25.02;43.87;92718.78;5061877;28;9149;-60
2022/09/28 01:31:19;;;;;;;;;;;;;;;24.99;43.72;92700.63;5050932;28;6990;-60
2022/09/28 01:34:07;;;;;;;;;;;;;;;25.02;44.29;92701.53;5082624;28;8748;-60
2022/09/28 01:37:13;;;;;;;;;;;;;;;25.03;44.14;92697.53;5053937;28;9419;-60
2022/09/28 01:39:46;;;;;;;;;;;;;;;25.00;43.90;92704.09;4973280;28;7279;-60
2022/09/28 01:42:33;;;;;;;;;;;;;;;25.00;43.82;92696.59;4969196;28;9273;-60
2022/09/28 01:45:08;;;;;;;;;;;;;;;25.02;43.58;92702.28;4975356;28;7418;-60
2022/09/28 01:47:41;;;;;;;;;;;;;;;25.00;44.01;92695.84;4975720;28;8782;-60
2022/09/28 01:50:21;;;;;;;;;;;;;;;25.01;44.44;92680.84;4984698;28;9355;-60
2022/09/28 01:53:14;;;;;;;;;;;;;;;25.00;43.40;92671.09;4971743;28;8916;-60
2022/09/28 01:56:07;;;;;;;;;;;;;;;24.99;44.08;92664.84;4980412;28;7862;-60
2022/09/28 01:58:58;;;;;;;;;;;;;;;25.01;43.60;92656.06;4990342;28;7212;-60
2022/09/28 02:01:48;;;;;;;;;;;;;;;25.01;43.55;92637.53;4975373;28;6997;-60
2022/09/28 02:04:24;;;;;;;;;;;;;;;25.00;43.52;92649.09;4968028;28;7200;-60
2022/09/28 02:07:18;;;;;;;;;;;;;;;25.00;44.32;92646.34;4964680;28;7359;-60
2022/09/28 02:09:56;;;;;;;;;;;;;;;25.01;44.15;92639.56;4991032;28;9435;-60
2022/09/28 02:13:04;;;;;;;;;;;;;;;24.99;43.97;92636.63;5070767;28;7419;-60
2022/09/28 02:15:58;;;;;;;;;;;;;;;24.99;43.83;92631.13;5029902;28;7280;-60
2022/09/28 02:18:27;;;;;;;;;;;;;;;24.99;44.18;92629.09;5023654;28;7176;-60
2022/09/28 02:21:39;;;;;;;;;;;;;;;25.00;44.08;92618.84;5014228;28;9577;-60
2022/09/28 02:24:23;;;;;;;;;;;;;;;24.98;44.07;92619.41;4985782;28;7583;-60
2022/09/28 02:26:57;;;;;;;;;;;;;;;24.99;44.06;92611.88;5014977;28;7456;-61
2022/09/28 02:29:32;;;;;;;;;;;;;;;25.02;43.32;92610.78;5031195;28;7270;-60
2022/09/28 02:32:00;;;;;;;;;;;;;;;25.01;43.68;92620.31;5022703;28;8805;-60
2022/09/28 02:34:31;;;;;;;;;;;;;;;25.01;43.90;92623.06;5029710;28;7231;-60
2022/09/28 02:36:58;;;;;;;;;;;;;;;24.99;43.86;92614.63;5022568;28;7167;-60
2022/09/28 02:39:25;;;;;;;;;;;;;;;24.99;43.96;92603.63;5010389;28;9246;-60
2022/09/28 02:42:19;;;;;;;;;;;;;;;25.00;43.33;92610.59;5013466;28;7142;-60
2022/09/28 02:44:55;;;;;;;;;;;;;;;24.99;43.51;92604.34;5023609;28;8954;-60
2022/09/28 02:47:47;;;;;;;;;;;;;;;24.99;43.98;92609.13;5015685;28;8470;-60
2022/09/28 02:50:53;;;;;;;;;;;;;;;24.97;43.94;92600.72;5006726;28;9368;-60
2022/09/28 02:53:20;;;;;;;;;;;;;;;24.94;44.31;92596.28;5028135;28;6992;-60
2022/09/28 02:55:49;;;;;;;;;;;;;;;24.95;43.71;92598.47;5039471;28;7236;-60
2022/09/28 02:58:41;;;;;;;;;;;;;;;24.95;44.26;92600.50;5018641;28;9431;-60
2022/09/28 03:01:33;;;;;;;;;;;;;;;24.91;44.13;92608.38;5031481;28;7282;-60
2022/09/28 03:04:17;;;;;;;;;;;;;;;24.90;43.74;92599.41;5027492;28;8700;-59
2022/09/28 03:07:00;;;;;;;;;;;;;;;24.91;43.81;92586.38;5023861;28;7092;-60
2022/09/28 03:09:38;;;;;;;;;;;;;;;24.91;43.46;92578.88;5018416;28;7423;-60
2022/09/28 03:12:12;;;;;;;;;;;;;;;24.91;43.70;92567.88;5040193;28;7349;-60
2022/09/28 03:15:09;;;;;;;;;;;;;;;24.90;43.57;92563.66;5034417;28;7305;-60
2022/09/28 03:17:56;;;;;;;;;;;;;;;24.93;44.16;92556.31;5025080;28;9712;-60
2022/09/28 03:20:23;;;;;;;;;;;;;;;24.92;44.07;92554.84;5029741;28;9415;-60
2022/09/28 03:22:50;;;;;;;;;;;;;;;24.91;43.99;92559.63;5029362;28;9120;-60
2022/09/28 03:26:04;;;;;;;;;;;;;;;24.90;44.28;92557.44;5050269;28;7195;-60
2022/09/28 03:28:40;;;;;;;;;;;;;;;24.90;44.32;92557.44;4928867;28;9519;-60
2022/09/28 03:31:27;;;;;;;;;;;;;;;24.90;44.37;92557.44;4953350;28;7102;-60
2022/09/28 03:34:11;;;;;;;;;;;;;;;24.90;43.75;92568.44;4950601;28;7236;-60
2022/09/28 03:36:47;;;;;;;;;;;;;;;24.89;44.22;92575.94;4987543;28;9177;-60
2022/09/28 03:39:16;;;;;;;;;;;;;;;24.87;43.91;92570.25;4945025;28;7430;-60
2022/09/28 03:41:42;;;;;;;;;;;;;;;24.90;44.00;92573.94;4971485;28;7337;-60
2022/09/28 03:44:10;;;;;;;;;;;;;;;24.88;44.25;92563.47;4973267;28;7271;-60
2022/09/28 03:46:38;;;;;;;;;;;;;;;24.87;44.17;92545.50;4969464;28;9359;-60
2022/09/28 03:49:04;;;;;;;;;;;;;;;24.85;43.85;92550.81;4955334;28;8310;-60
2022/09/28 03:51:49;;;;;;;;;;;;;;;24.88;43.50;92557.25;4962597;28;7569;-60
2022/09/28 03:54:15;;;;;;;;;;;;;;;24.86;43.67;92562.56;4949659;28;7187;-60
2022/09/28 03:57:18;;;;;;;;;;;;;;;24.84;43.61;92554.13;4971160;28;8954;-60
2022/09/28 03:59:54;;;;;;;;;;;;;;;24.84;43.61;92535.59;4953491;28;8368;-60
2022/09/28 04:02:26;;;;;;;;;;;;;;;24.82;43.79;92534.66;4976529;28;7341;-60
2022/09/28 04:04:53;;;;;;;;;;;;;;;24.81;44.12;92533.97;4994755;28;7669;-60
2022/09/28 04:07:30;;;;;;;;;;;;;;;24.84;43.64;92548.63;5046513;28;7154;-60
2022/09/28 04:09:56;;;;;;;;;;;;;;;24.82;43.89;92551.16;5046772;28;7276;-60
2022/09/28 04:12:22;;;;;;;;;;;;;;;24.82;44.29;92538.16;5033137;28;7159;-60
2022/09/28 04:14:50;;;;;;;;;;;;;;;24.80;44.48;92535.22;5033744;28;8939;-60
2022/09/28 04:17:18;;;;;;;;;;;;;;;24.81;43.89;92533.22;5035866;28;7352;-60
2022/09/28 04:19:56;;;;;;;;;;;;;;;24.83;43.69;92533.41;5037077;28;7343;-60
2022/09/28 04:23:09;;;;;;;;;;;;;;;24.82;43.61;92534.66;5044570;28;7588;-60
2022/09/28 04:25:50;;;;;;;;;;;;;;;24.80;44.44;92537.97;4984207;28;7211;-60
2022/09/28 04:31:44;;;;;;;;;;;;;;;24.80;44.48;92524.22;4994673;28;7007;-60
2022/09/28 04:34:24;;;;;;;;;;;;;;;24.79;44.13;92538.53;4949924;28;9569;-60
2022/09/28 04:36:50;;;;;;;;;;;;;;;24.77;44.14;92541.84;4916808;29;7134;-60
2022/09/28 04:39:20;;;;;;;;;;;;;;;24.78;44.04;92520.56;4922779;28;8582;-60
2022/09/28 04:41:47;;;;;;;;;;;;;;;24.78;43.82;92518.56;4935561;28;7293;-60
2022/09/28 04:44:13;;;;;;;;;;;;;;;24.79;44.26;92516.53;4937054;28;7237;-60
2022/09/28 04:46:39;;;;;;;;;;;;;;;24.79;43.31;92508.28;4915186;28;7620;-61
2022/09/28 04:49:09;;;;;;;;;;;;;;;24.79;44.12;92503.53;4921858;28;7260;-61
2022/09/28 04:51:36;;;;;;;;;;;;;;;24.81;43.12;92522.22;4936778;28;7414;-61
2022/09/28 04:54:02;;;;;;;;;;;;;;;24.81;43.45;92530.47;4918571;29;7314;-60
2022/09/28 04:56:32;;;;;;;;;;;;;;;24.79;43.80;92527.53;4932886;28;7402;-60
2022/09/28 04:59:02;;;;;;;;;;;;;;;24.77;43.36;92530.09;4928813;28;8577;-60
2022/09/28 05:01:31;;;;;;;;;;;;;;;24.76;43.76;92525.88;4928025;28;7052;-60
2022/09/28 05:04:01;;;;;;;;;;;;;;;24.71;43.20;92524.75;5029043;28;7185;-60
2022/09/28 05:06:29;;;;;;;;;;;;;;;24.69;44.21;92516.31;5030918;28;7456;-60
2022/09/28 05:08:58;;;;;;;;;;;;;;;24.69;44.02;92528.06;5048608;28;7249;-60
2022/09/28 05:11:24;;;;;;;;;;;;;;;24.75;44.51;92540.94;5078152;28;7133;-60
2022/09/28 05:13:51;;;;;;;;;;;;;;;24.79;44.24;92531.03;5061786;28;7393;-60
2022/09/28 05:16:19;;;;;;;;;;;;;;;24.86;43.71;92527.53;5061372;28;7481;-60
2022/09/28 05:18:47;;;;;;;;;;;;;;;24.93;43.85;92534.31;5068115;28;8567;-60
2022/09/28 05:21:18;;;;;;;;;;;;;;;24.97;43.88;92507.19;5053610;28;6987;-60
2022/09/28 05:23:46;;;;;;;;;;;;;;;24.99;43.79;92499.84;5057067;28;7314;-60
2022/09/28 05:26:15;;;;;;;;;;;;;;;25.05;44.19;92510.66;5050714;28;9881;-60
2022/09/28 05:28:47;;;;;;;;;;;;;;;25.07;43.62;92513.59;5044497;28;7648;-59
2022/09/28 05:31:14;;;;;;;;;;;;;;;25.11;43.50;92500.94;5057431;28;7194;-60
2022/09/28 05:33:42;;;;;;;;;;;;;;;25.13;43.15;92495.63;5061331;28;7031;-60
2022/09/28 05:36:09;;;;;;;;;;;;;;;25.14;43.87;92499.81;5058033;28;9053;-60
2022/09/28 05:38:38;;;;;;;;;;;;;;;25.17;43.56;92506.97;5085441;28;7605;-60
2022/09/28 05:41:06;;;;;;;;;;;;;;;25.23;43.57;92513.00;5054828;28;7255;-60
2022/09/28 05:43:35;;;;;;;;;;;;;;;25.24;42.84;92511.00;5080612;28;7233;-60
2022/09/28 05:46:01;;;;;;;;;;;;;;;25.26;42.66;92505.66;5054329;28;7133;-60
2022/09/28 05:48:42;;;;;;;;;;;;;;;25.27;43.02;92504.41;5061502;28;7219;-60
2022/09/28 05:51:24;;;;;;;;;;;;;;;25.27;42.96;92509.91;5072878;28;6999;-60
2022/09/28 05:53:56;;;;;;;;;;;;;;;25.30;42.46;92506.03;5055598;28;7487;-60
2022/09/28 05:56:24;;;;;;;;;;;;;;;25.30;42.52;92501.25;5056068;28;7262;-61
2022/09/28 05:58:59;;;;;;;;;;;;;;;25.31;43.32;92499.25;5051823;28;7042;-60
2022/09/28 06:01:25;;;;;;;;;;;;;;;25.31;43.08;92491.00;5061951;28;7350;-60
2022/09/28 06:03:53;;;;;;;;;;;;;;;25.32;43.39;92487.69;5069298;28;7251;-60
2022/09/28 06:06:30;;;;;;;;;;;;;;;25.33;42.76;92497.41;5061975;28;7367;-60
2022/09/28 06:09:17;;;;;;;;;;;;;;;25.37;42.96;92499.78;5066153;28;9183;-61
2022/09/28 06:12:14;;;;;;;;;;;;;;;25.41;43.55;92500.13;5050624;28;9500;-61
2022/09/28 06:14:55;;;;;;;;;;;;;;;25.46;43.46;92499.22;5006203;28;8188;-61
2022/09/28 06:17:21;;;;;;;;;;;;;;;25.49;43.66;92500.84;5018157;28;7277;-61
2022/09/28 06:20:03;;;;;;;;;;;;;;;25.54;43.46;92504.69;5005052;28;9836;-60
2022/09/28 06:22:38;;;;;;;;;;;;;;;25.56;43.77;92502.88;5010400;28;7268;-61
2022/09/28 06:25:12;;;;;;;;;;;;;;;25.62;43.40;92503.38;5023821;28;7325;-61
2022/09/28 06:27:41;;;;;;;;;;;;;;;25.65;42.99;92505.03;5011514;28;7242;-61
2022/09/28 06:30:08;;;;;;;;;;;;;;;25.68;43.57;92501.19;5013825;28;6990;-60
2022/09/28 06:32:42;;;;;;;;;;;;;;;25.71;43.79;92513.09;5003871;28;7144;-60
2022/09/28 06:35:17;;;;;;;;;;;;;;;25.73;44.12;92519.50;5000256;28;7150;-61
2022/09/28 06:37:52;;;;;;;;;;;;;;;25.78;44.02;92523.34;5013350;28;7046;-60
2022/09/28 06:40:20;;;;;;;;;;;;;;;25.80;43.63;92524.25;5024427;28;7287;-60
2022/09/28 06:43:28;;;;;;;;;;;;;;;25.81;43.36;92528.50;5011017;28;7079;-59
2022/09/28 06:45:56;;;;;;;;;;;;;;;25.83;43.83;92531.41;4989427;28;7547;-60
2022/09/28 06:48:23;;;;;;;;;;;;;;;25.86;43.95;92533.03;4975254;28;6899;-59
2022/09/28 06:51:00;;;;;;;;;;;;;;;25.87;43.53;92534.53;4976990;28;7011;-60
2022/09/28 06:53:28;;;;;;;;;;;;;;;25.88;44.13;92535.25;4996535;28;7005;-59
2022/09/28 06:56:29;;;;;;;;;;;;;;;25.87;44.62;92534.53;5000693;28;8279;-59
2022/09/28 06:59:02;;;;;;;;;;;;;;;25.87;44.49;92529.00;4939657;28;7290;-59
2022/09/28 07:01:28;;;;;;;;;;;;;;;25.89;44.45;92539.47;4931600;28;8475;-60
2022/09/28 07:03:55;;;;;;;;;;;;;;;25.87;44.50;92529.00;4930270;28;7323;-60
2022/09/28 07:06:30;;;;;;;;;;;;;;;25.87;44.61;92531.75;4932350;28;9092;-59
2022/09/28 07:09:33;;;;;;;;;;;;;;;25.88;44.57;92541.47;4917178;29;9020;-60
2022/09/28 07:11:59;;;;;;;;;;;;;;;25.88;43.73;92540.78;4892744;29;7341;-60
2022/09/28 07:14:38;;;;;;;;;;;;;;;25.88;44.33;92552.50;4899747;29;7948;-60
2022/09/28 07:17:15;;;;;;;;;;;;;;;25.87;43.77;92553.81;4897778;29;7089;-60
2022/09/28 07:20:19;;;;;;;;;;;;;;;25.86;43.93;92549.56;4906239;29;9391;-60
2022/09/28 07:22:52;;;;;;;;;;;;;;;25.84;43.92;92554.16;4891419;29;7172;-60
2022/09/28 07:25:31;;;;;;;;;;;;;;;25.81;44.39;92553.28;4895440;29;9189;-60
2022/09/28 07:28:06;;;;;;;;;;;;;;;25.82;44.29;92551.22;4898964;29;8703;-60
2022/09/28 07:31:04;;;;;;;;;;;;;;;25.80;44.22;92551.78;4909741;29;7232;-60
2022/09/28 07:34:03;;;;;;;;;;;;;;;25.78;44.46;92548.88;4884202;29;7844;-60
2022/09/28 07:36:33;;;;;;;;;;;;;;;25.77;44.57;92541.16;4925454;29;8724;-60
2022/09/28 07:39:02;;;;;;;;;;;;;;;25.74;44.26;92540.25;4900145;29;7246;-60
2022/09/28 07:41:31;;;;;;;;;;;;;;;25.76;44.32;92554.19;4906034;29;7073;-60
2022/09/28 07:44:04;;;;;;;;;;;;;;;25.73;44.74;92558.06;4925843;29;7177;-60
2022/09/28 07:46:45;;;;;;;;;;;;;;;25.74;44.54;92569.81;4930456;29;8534;-60
2022/09/28 07:49:14;;;;;;;;;;;;;;;25.71;44.32;92568.91;4919691;29;7148;-60
2022/09/28 07:52:11;;;;;;;;;;;;;;;25.69;44.31;92581.75;4930859;29;7352;-60
2022/09/28 07:54:51;;;;;;;;;;;;;;;25.67;44.61;92579.56;4901761;29;7561;-60
2022/09/28 07:57:19;;;;;;;;;;;;;;;25.67;44.85;92598.09;4945047;28;7223;-60
2022/09/28 07:59:45;;;;;;;;;;;;;;;25.64;44.86;92594.44;4973817;28;10494;-60
2022/09/28 08:02:25;;;;;;;;;;;;;;;25.61;44.70;92595.53;4964465;28;8775;-60
2022/09/28 08:05:03;;;;;;;;;;;;;;;25.61;44.68;92592.78;4959489;28;7262;-60
2022/09/28 08:07:37;;;;;;;;;;;;;;;25.59;44.68;92587.09;4972347;28;7249;-60
2022/09/28 08:10:06;;;;;;;;;;;;;;;25.57;44.35;92589.69;4905820;28;7233;-60
2022/09/28 08:12:54;;;;;;;;;;;;;;;25.56;44.68;92599.22;4948122;28;9074;-61
2022/09/28 08:15:24;;;;;;;;;;;;;;;25.56;44.32;92615.72;4973567;28;7238;-60
2022/09/28 08:17:54;;;;;;;;;;;;;;;25.54;44.64;92590.78;4969883;28;7334;-60
2022/09/28 08:23:46;;;;;;;;;;;;;;;25.51;44.98;92611.16;4985755;28;9098;-60
2022/09/28 08:26:22;;;;;;;;;;;;;;;25.50;44.39;92615.19;4995029;28;7282;-61
2022/09/28 08:28:50;;;;;;;;;;;;;;;25.51;44.87;92613.19;4975125;28;7309;-60
2022/09/28 08:31:21;;;;;;;;;;;;;;;25.50;44.75;92617.94;5028862;28;7586;-60
2022/09/28 08:33:59;;;;;;;;;;;;;;;25.49;45.08;92610.25;5047950;28;7131;-60
2022/09/28 08:36:55;;;;;;;;;;;;;;;25.49;44.28;92615.75;5072666;28;9096;-60
2022/09/28 08:39:21;;;;;;;;;;;;;;;25.49;44.83;92616.47;5047374;28;7048;-59
2022/09/28 08:42:08;;;;;;;;;;;;;;;25.49;44.31;92610.97;5058134;28;7846;-60
2022/09/28 08:44:48;;;;;;;;;;;;;;;25.49;44.25;92605.47;5056730;28;7952;-60
2022/09/28 08:50:15;;;;;;;;;;;;;;;25.48;44.01;92620.53;5062930;28;7607;-60
2022/09/28 08:52:50;;;;;;;;;;;;;;;25.49;44.65;92619.22;5054277;28;7177;-60
2022/09/28 08:55:31;;;;;;;;;;;;;;;25.48;44.78;92615.00;5047510;28;7162;-60
2022/09/28 08:57:57;;;;;;;;;;;;;;;25.47;45.13;92615.56;5068642;28;7276;-60
2022/09/28 09:00:39;;;;;;;;;;;;;;;25.46;44.85;92623.09;5049057;28;7313;-60
2022/09/28 09:03:12;;;;;;;;;;;;;;;25.45;45.19;92618.16;5056895;28;7198;-60
2022/09/28 09:05:50;;;;;;;;;;;;;;;25.46;45.20;92611.34;5036245;28;7186;-60
2022/09/28 09:08:56;;;;;;;;;;;;;;;25.46;45.11;92641.63;5058764;28;6991;-60
2022/09/28 09:11:47;;;;;;;;;;;;;;;25.47;45.02;92645.84;4994131;28;7310;-60
2022/09/28 09:14:43;;;;;;;;;;;;;;;25.47;44.77;92646.56;5012045;28;7163;-60
2022/09/28 09:17:42;;;;;;;;;;;;;;;25.46;44.22;92645.13;4933841;29;6916;-60
2022/09/28 09:20:19;;;;;;;;;;;;;;;25.46;45.02;92649.88;4933788;28;8465;-60
2022/09/28 09:22:50;;;;;;;;;;;;;;;25.46;44.54;92649.88;4949645;28;7021;-61
2022/09/28 09:25:41;;;;;;;;;;;;;;;25.43;44.87;92662.72;4954195;28;7331;-60
2022/09/28 09:28:42;;;;;;;;;;;;;;;25.40;44.02;92658.31;4934281;29;7373;-61
2022/09/28 09:31:15;;;;;;;;;;;;;;;25.38;44.93;92663.63;4948748;28;6903;-60
2022/09/28 09:34:19;;;;;;;;;;;;;;;25.39;45.08;92657.56;4945864;28;7326;-60
2022/09/28 09:37:20;;;;;;;;;;;;;;;25.39;45.29;92651.31;4935724;28;9346;-60
2022/09/28 09:40:23;;;;;;;;;;;;;;;25.37;44.45;92648.38;4895608;29;7359;-61
2022/09/28 09:42:57;;;;;;;;;;;;;;;25.36;44.92;92653.16;4874982;29;7029;-61
2022/09/28 09:45:44;;;;;;;;;;;;;;;25.35;44.47;92653.72;4895867;29;7047;-60
2022/09/28 09:48:28;;;;;;;;;;;;;;;25.32;44.65;92652.78;4914118;28;6993;-60
2022/09/28 09:51:05;;;;;;;;;;;;;;;25.31;45.23;92653.34;4910635;29;7199;-60
2022/09/28 09:53:58;;;;;;;;;;;;;;;25.33;44.90;92654.28;4946651;28;6962;-61
2022/09/28 09:56:42;;;;;;;;;;;;;;;25.36;45.12;92653.16;4982831;28;6955;-61
2022/09/28 09:59:17;;;;;;;;;;;;;;;25.41;44.65;92659.75;5006675;28;7260;-60
2022/09/28 10:01:58;;;;;;;;;;;;;;;25.39;45.34;92665.09;4992609;28;7600;-61
2022/09/28 10:04:31;;;;;;;;;;;;;;;25.38;44.56;92656.09;4994236;28;7238;-61
2022/09/28 10:07:07;;;;;;;;;;;;;;;25.38;45.59;92656.09;4991481;28;7407;-61
2022/09/28 10:10:11;;;;;;;;;;;;;;;25.39;45.76;92657.56;4992734;28;7188;-61
2022/09/28 10:13:07;;;;;;;;;;;;;;;25.41;44.84;92665.25;4915825;29;9118;-61
2022/09/28 10:15:38;;;;;;;;;;;;;;;25.42;45.39;92653.72;4910121;28;8987;-61
2022/09/28 10:18:17;;;;;;;;;;;;;;;25.41;46.16;92648.75;4953799;28;7154;-60
2022/09/28 10:20:53;;;;;;;;;;;;;;;25.39;45.93;92637.56;4931817;28;7332;-61
2022/09/28 10:23:32;;;;;;;;;;;;;;;25.37;46.34;92645.63;4930262;29;7193;-60
2022/09/28 10:26:23;;;;;;;;;;;;;;;25.34;47.00;92643.97;4929319;28;7247;-60
2022/09/28 10:29:02;;;;;;;;;;;;;;;25.34;46.92;92649.47;4933117;28;7293;-61
2022/09/28 10:31:43;;;;;;;;;;;;;;;25.32;46.72;92641.03;4929877;28;7263;-61
2022/09/28 10:34:16;;;;;;;;;;;;;;;25.30;47.10;92643.63;4933868;28;7249;-60
2022/09/28 10:36:57;;;;;;;;;;;;;;;25.32;47.00;92643.78;4946432;28;8199;-60
2022/09/28 10:39:35;;;;;;;;;;;;;;;25.31;46.84;92650.59;4952204;28;7406;-61
2022/09/28 10:42:10;;;;;;;;;;;;;;;25.28;46.83;92640.69;4928848;29;7041;-61
2022/09/28 10:44:58;;;;;;;;;;;;;;;25.29;46.20;92650.41;4951786;28;6999;-60
2022/09/28 10:47:30;;;;;;;;;;;;;;;25.29;46.52;92651.13;4933382;28;7474;-60
2022/09/28 10:49:59;;;;;;;;;;;;;;;25.30;46.45;92651.88;4949203;28;8436;-60
2022/09/28 10:52:30;;;;;;;;;;;;;;;25.29;46.01;92658.66;5017899;28;7041;-60
2022/09/28 10:55:22;;;;;;;;;;;;;;;25.26;46.30;92665.25;5076699;28;7004;-60
2022/09/28 10:58:16;;;;;;;;;;;;;;;25.27;46.95;92661.25;5063378;28;7233;-61
2022/09/28 11:01:23;;;;;;;;;;;;;;;25.28;46.23;92665.44;5077975;28;7583;-61
2022/09/28 11:04:01;;;;;;;;;;;;;;;25.24;46.38;92654.81;4970872;28;7223;-60
2022/09/28 11:06:34;;;;;;;;;;;;;;;25.27;46.74;92650.22;4960874;28;7358;-60
2022/09/28 11:09:04;;;;;;;;;;;;;;;25.28;45.81;92643.44;4958909;28;8244;-60
2022/09/28 11:11:40;;;;;;;;;;;;;;;25.27;46.44;92639.94;4966788;28;7166;-60
2022/09/28 11:14:26;;;;;;;;;;;;;;;25.30;46.40;92643.63;4969574;28;9432;-60
2022/09/28 11:17:27;;;;;;;;;;;;;;;25.30;46.24;92644.34;4967958;28;7267;-60
2022/09/28 11:19:55;;;;;;;;;;;;;;;25.29;46.17;92633.91;4961964;28;7235;-60
2022/09/28 11:22:32;;;;;;;;;;;;;;;25.28;45.56;92640.69;4976244;28;7858;-60
2022/09/28 11:25:23;;;;;;;;;;;;;;;25.31;45.85;92648.59;4979320;28;7316;-61
2022/09/28 11:28:04;;;;;;;;;;;;;;;25.33;45.67;92626.00;4959991;28;7221;-61
2022/09/28 11:30:40;;;;;;;;;;;;;;;25.36;46.31;92633.16;4954642;28;7139;-61
2022/09/28 11:33:16;;;;;;;;;;;;;;;25.36;45.62;92636.63;4970328;28;7300;-60
2022/09/28 11:35:51;;;;;;;;;;;;;;;25.35;45.75;92634.44;4973469;28;8557;-60
2022/09/28 11:38:32;;;;;;;;;;;;;;;25.37;46.14;92638.13;4980126;28;8875;-60
2022/09/28 11:41:07;;;;;;;;;;;;;;;25.40;45.77;92636.28;5066336;28;6998;-60
2022/09/28 11:44:11;;;;;;;;;;;;;;;25.37;46.13;92632.63;5067174;28;7511;-60
2022/09/28 11:47:10;;;;;;;;;;;;;;;25.35;45.61;92620.69;5082659;28;7642;-60
2022/09/28 11:49:56;;;;;;;;;;;;;;;25.39;45.98;92629.31;5074714;28;7153;-60
2022/09/28 11:53:09;;;;;;;;;;;;;;;25.38;46.13;92627.84;5062530;28;9015;-60
2022/09/28 11:55:45;;;;;;;;;;;;;;;25.32;46.04;92616.28;5079753;28;7063;-60
2022/09/28 11:58:20;;;;;;;;;;;;;;;25.32;46.01;92621.78;5043877;28;7111;-60
2022/09/28 12:01:00;;;;;;;;;;;;;;;25.30;45.85;92619.59;5075219;28;7232;-60
2022/09/28 12:03:40;;;;;;;;;;;;;;;25.31;45.55;92607.31;5072408;28;7055;-60
2022/09/28 12:06:22;;;;;;;;;;;;;;;25.31;45.98;92590.06;5067948;28;9233;-60
2022/09/28 12:09:14;;;;;;;;;;;;;;;25.29;45.92;92582.34;5051891;28;8657;-60
2022/09/28 12:12:00;;;;;;;;;;;;;;;25.26;45.52;92582.72;5045902;28;6980;-60
2022/09/28 12:14:37;;;;;;;;;;;;;;;25.24;46.05;92590.78;5035560;28;7088;-60
2022/09/28 12:17:21;;;;;;;;;;;;;;;25.24;46.00;92602.53;5051614;28;7123;-60
2022/09/28 12:20:21;;;;;;;;;;;;;;;25.20;45.88;92598.69;5044892;28;7359;-60
2022/09/28 12:23:02;;;;;;;;;;;;;;;25.21;45.41;92613.88;5063003;28;7447;-60
2022/09/28 12:25:40;;;;;;;;;;;;;;;25.23;45.52;92625.81;5045341;28;7238;-61
2022/09/28 12:28:34;;;;;;;;;;;;;;;25.22;44.86;92631.88;5061113;28;7236;-61
2022/09/28 12:31:22;;;;;;;;;;;;;;;25.22;45.08;92631.88;5049470;28;7586;-61
2022/09/28 12:33:57;;;;;;;;;;;;;;;25.19;44.79;92636.47;4988862;28;9435;-60
2022/09/28 12:36:47;;;;;;;;;;;;;;;25.18;45.60;92639.78;5000576;28;7223;-60
2022/09/28 12:39:42;;;;;;;;;;;;;;;25.18;45.46;92648.75;4983338;28;9068;-60
2022/09/28 12:43:02;;;;;;;;;;;;;;;25.18;44.83;92661.78;4985632;28;7270;-60
2022/09/28 12:45:33;;;;;;;;;;;;;;;25.15;45.33;92658.09;4925076;29;9452;-61
2022/09/28 12:48:45;;;;;;;;;;;;;;;25.15;44.87;92668.38;4946702;29;7301;-60
2022/09/28 12:51:20;;;;;;;;;;;;;;;25.14;45.41;92675.16;4943464;29;8790;-61
2022/09/28 12:54:33;;;;;;;;;;;;;;;25.14;45.06;92675.16;4933572;28;7369;-61
2022/09/28 12:57:36;;;;;;;;;;;;;;;25.12;45.91;92656.44;4932548;28;7241;-60
2022/09/28 13:00:05;;;;;;;;;;;;;;;25.13;45.25;92646.19;4927587;28;9865;-60
2022/09/28 13:02:44;;;;;;;;;;;;;;;25.14;45.74;92655.91;4946809;28;7304;-60
2022/09/28 13:05:36;;;;;;;;;;;;;;;25.12;45.35;92656.44;4944489;28;7298;-61
2022/09/28 13:08:02;;;;;;;;;;;;;;;25.14;45.82;92655.91;4944952;28;7222;-60
2022/09/28 13:10:57;;;;;;;;;;;;;;;25.15;45.74;92651.84;4954710;28;6951;-60
2022/09/28 13:14:19;;;;;;;;;;;;;;;25.15;45.33;92638.09;5006127;28;9130;-61
2022/09/28 13:17:27;;;;;;;;;;;;;;;25.16;45.99;92645.09;4988080;28;7238;-61
2022/09/28 13:20:22;;;;;;;;;;;;;;;25.14;44.96;92653.16;5046247;28;9459;-60
2022/09/28 13:22:55;;;;;;;;;;;;;;;25.14;45.18;92634.63;5069917;28;6997;-60
2022/09/28 13:25:27;;;;;;;;;;;;;;;25.13;45.35;92640.66;5071952;28;9784;-60
2022/09/28 13:28:02;;;;;;;;;;;;;;;25.14;45.70;92644.91;5071362;28;7234;-60
2022/09/28 13:30:42;;;;;;;;;;;;;;;25.15;45.09;92638.09;5052170;28;7182;-60
2022/09/28 13:33:28;;;;;;;;;;;;;;;25.13;44.81;92626.91;5068993;28;7205;-61
2022/09/28 13:35:57;;;;;;;;;;;;;;;25.12;44.96;92628.94;5074491;28;7322;-61
2022/09/28 13:38:24;;;;;;;;;;;;;;;25.14;45.11;92636.66;5051154;28;7226;-61
2022/09/28 13:41:12;;;;;;;;;;;;;;;25.13;45.71;92632.41;5061558;28;7908;-60
2022/09/28 13:43:53;;;;;;;;;;;;;;;25.14;45.94;92631.16;5071367;28;7269;-61
2022/09/28 13:46:46;;;;;;;;;;;;;;;25.15;45.69;92638.09;5063468;28;7584;-60
2022/09/28 13:50:06;;;;;;;;;;;;;;;25.11;45.77;92649.47;5077909;28;8834;-60
2022/09/28 13:52:57;;;;;;;;;;;;;;;25.11;45.88;92659.75;5001133;28;9070;-61
2022/09/28 13:55:41;;;;;;;;;;;;;;;25.11;45.92;92670.75;4972735;28;6963;-60
2022/09/28 13:58:52;;;;;;;;;;;;;;;25.07;45.84;92670.38;4956802;28;7333;-60
2022/09/28 14:01:25;;;;;;;;;;;;;;;25.06;45.58;92690.91;4950388;28;7346;-60
2022/09/28 14:04:19;;;;;;;;;;;;;;;25.08;45.16;92682.84;4957122;28;7160;-60
2022/09/28 14:06:53;;;;;;;;;;;;;;;25.09;45.14;92693.31;4972596;28;9033;-60
2022/09/28 14:09:46;;;;;;;;;;;;;;;25.11;44.94;92698.25;4967843;28;6985;-60
2022/09/28 14:12:41;;;;;;;;;;;;;;;25.11;45.84;92695.50;4971936;28;8533;-60
2022/09/28 14:15:28;;;;;;;;;;;;;;;25.11;45.88;92704.50;4956793;28;7319;-60